sensor_id;sensor_type;location;lat;lon;timestamp;pressure;altitude;pressure_sealevel;temperature;humidity
76868;BME280;66168;45.478;11.060;2023-04-15T00:00:34;99592.21;;;11.15;56.93
76868;BME280;66168;45.478;11.060;2023-04-15T00:03:01;99589.02;;;11.16;56.75
76868;BME280;66168;45.478;11.060;2023-04-15T00:05:30;99584.70;;;11.17;56.39
76868;BME280;66168;45.478;11.060;2023-04-15T00:07:58;99581.70;;;11.18;56.10
76868;BME280;66168;45.478;11.060;2023-04-15T00:10:25;99582.14;;;11.19;55.66
76868;BME280;66168;45.478;11.060;2023-04-15T00:12:51;99581.98;;;11.20;55.14
76868;BME280;66168;45.478;11.060;2023-04-15T00:15:18;99585.09;;;11.22;54.87
76868;BME280;66168;45.478;11.060;2023-04-15T00:17:45;99582.59;;;11.24;54.88
76868;BME280;66168;45.478;11.060;2023-04-15T00:20:12;99578.01;;;11.26;54.86
76868;BME280;66168;45.478;11.060;2023-04-15T00:22:39;99577.64;;;11.26;55.04
76868;BME280;66168;45.478;11.060;2023-04-15T00:25:07;99579.23;;;11.24;55.14
76868;BME280;66168;45.478;11.060;2023-04-15T00:27:34;99580.50;;;11.20;55.56
76868;BME280;66168;45.478;11.060;2023-04-15T00:30:01;99577.65;;;11.15;55.66
76868;BME280;66168;45.478;11.060;2023-04-15T00:32:29;99576.70;;;11.07;55.76
76868;BME280;66168;45.478;11.060;2023-04-15T00:34:56;99579.24;;;11.00;56.00
76868;BME280;66168;45.478;11.060;2023-04-15T00:37:23;99583.45;;;10.94;56.16
76868;BME280;66168;45.478;11.060;2023-04-15T00:39:51;99581.89;;;10.89;56.25
76868;BME280;66168;45.478;11.060;2023-04-15T00:42:18;99580.70;;;10.84;56.15
76868;BME280;66168;45.478;11.060;2023-04-15T00:44:47;99575.54;;;10.82;56.17
76868;BME280;66168;45.478;11.060;2023-04-15T00:47:15;99577.79;;;10.80;55.92
76868;BME280;66168;45.478;11.060;2023-04-15T00:49:43;99581.98;;;10.79;55.67
76868;BME280;66168;45.478;11.060;2023-04-15T00:52:09;99581.50;;;10.77;55.63
76868;BME280;66168;45.478;11.060;2023-04-15T00:54:36;99580.73;;;10.75;55.72
76868;BME280;66168;45.478;11.060;2023-04-15T00:57:05;99576.95;;;10.71;55.77
76868;BME280;66168;45.478;11.060;2023-04-15T00:59:32;99578.27;;;10.68;55.96
76868;BME280;66168;45.478;11.060;2023-04-15T01:01:59;99577.60;;;10.65;56.01
76868;BME280;66168;45.478;11.060;2023-04-15T01:04:28;99577.31;;;10.62;56.06
76868;BME280;66168;45.478;11.060;2023-04-15T01:06:55;99581.64;;;10.58;56.19
76868;BME280;66168;45.478;11.060;2023-04-15T01:09:22;99578.33;;;10.54;56.39
76868;BME280;66168;45.478;11.060;2023-04-15T01:11:49;99581.70;;;10.50;56.50
76868;BME280;66168;45.478;11.060;2023-04-15T01:14:16;99579.58;;;10.45;56.71
76868;BME280;66168;45.478;11.060;2023-04-15T01:16:43;99577.51;;;10.38;56.74
76868;BME280;66168;45.478;11.060;2023-04-15T01:19:11;99574.05;;;10.30;56.75
76868;BME280;66168;45.478;11.060;2023-04-15T01:21:40;99573.63;;;10.23;56.80
76868;BME280;66168;45.478;11.060;2023-04-15T01:24:09;99578.30;;;10.18;56.83
76868;BME280;66168;45.478;11.060;2023-04-15T01:26:37;99578.57;;;10.15;56.98
76868;BME280;66168;45.478;11.060;2023-04-15T01:29:06;99581.02;;;10.12;57.01
76868;BME280;66168;45.478;11.060;2023-04-15T01:31:33;99581.25;;;10.08;56.87
76868;BME280;66168;45.478;11.060;2023-04-15T01:34:01;99578.95;;;10.05;56.80
76868;BME280;66168;45.478;11.060;2023-04-15T01:36:27;99576.09;;;10.04;56.87
76868;BME280;66168;45.478;11.060;2023-04-15T01:38:56;99575.03;;;10.04;56.88
76868;BME280;66168;45.478;11.060;2023-04-15T01:41:27;99574.54;;;10.03;56.71
76868;BME280;66168;45.478;11.060;2023-04-15T01:43:54;99575.84;;;10.03;56.63
76868;BME280;66168;45.478;11.060;2023-04-15T01:46:21;99574.16;;;10.01;56.65
76868;BME280;66168;45.478;11.060;2023-04-15T01:48:48;99577.11;;;9.96;56.89
76868;BME280;66168;45.478;11.060;2023-04-15T01:51:15;99576.45;;;9.93;56.89
76868;BME280;66168;45.478;11.060;2023-04-15T01:53:42;99577.02;;;9.91;57.13
76868;BME280;66168;45.478;11.060;2023-04-15T01:56:09;99573.12;;;9.90;56.91
76868;BME280;66168;45.478;11.060;2023-04-15T01:58:36;99574.21;;;9.89;56.78
76868;BME280;66168;45.478;11.060;2023-04-15T02:01:03;99575.83;;;9.91;56.59
76868;BME280;66168;45.478;11.060;2023-04-15T02:03:30;99576.77;;;9.92;56.50
76868;BME280;66168;45.478;11.060;2023-04-15T02:05:57;99574.77;;;9.91;56.50
76868;BME280;66168;45.478;11.060;2023-04-15T02:08:24;99573.91;;;9.91;56.53
76868;BME280;66168;45.478;11.060;2023-04-15T02:10:50;99573.28;;;9.90;56.62
76868;BME280;66168;45.478;11.060;2023-04-15T02:13:18;99576.31;;;9.90;56.57
76868;BME280;66168;45.478;11.060;2023-04-15T02:15:48;99574.52;;;9.89;56.57
76868;BME280;66168;45.478;11.060;2023-04-15T02:18:17;99575.52;;;9.85;56.73
76868;BME280;66168;45.478;11.060;2023-04-15T02:20:44;99577.75;;;9.83;56.69
76868;BME280;66168;45.478;11.060;2023-04-15T02:23:12;99574.82;;;9.82;56.63
76868;BME280;66168;45.478;11.060;2023-04-15T02:25:42;99578.96;;;9.82;56.54
76868;BME280;66168;45.478;11.060;2023-04-15T02:28:19;99576.70;;;9.79;56.49
76868;BME280;66168;45.478;11.060;2023-04-15T02:30:47;99582.24;;;9.77;56.64
76868;BME280;66168;45.478;11.060;2023-04-15T02:33:18;99584.90;;;9.76;56.76
76868;BME280;66168;45.478;11.060;2023-04-15T02:35:45;99581.38;;;9.67;56.66
76868;BME280;66168;45.478;11.060;2023-04-15T02:38:13;99581.58;;;9.59;57.14
76868;BME280;66168;45.478;11.060;2023-04-15T02:40:42;99582.73;;;9.55;57.17
76868;BME280;66168;45.478;11.060;2023-04-15T02:43:09;99582.92;;;9.52;57.32
76868;BME280;66168;45.478;11.060;2023-04-15T02:45:36;99578.79;;;9.50;57.36
76868;BME280;66168;45.478;11.060;2023-04-15T02:48:03;99582.59;;;9.49;57.57
76868;BME280;66168;45.478;11.060;2023-04-15T02:50:32;99580.24;;;9.48;57.27
76868;BME280;66168;45.478;11.060;2023-04-15T02:52:59;99584.70;;;9.48;57.17
76868;BME280;66168;45.478;11.060;2023-04-15T02:55:28;99588.73;;;9.47;57.13
76868;BME280;66168;45.478;11.060;2023-04-15T02:57:54;99586.19;;;9.47;57.15
76868;BME280;66168;45.478;11.060;2023-04-15T03:00:21;99579.39;;;9.47;57.11
76868;BME280;66168;45.478;11.060;2023-04-15T03:02:50;99580.08;;;9.47;57.15
76868;BME280;66168;45.478;11.060;2023-04-15T03:05:22;99583.17;;;9.48;57.12
76868;BME280;66168;45.478;11.060;2023-04-15T03:07:51;99588.75;;;9.45;57.04
76868;BME280;66168;45.478;11.060;2023-04-15T03:10:18;99590.20;;;9.43;57.33
76868;BME280;66168;45.478;11.060;2023-04-15T03:12:46;99591.55;;;9.42;57.13
76868;BME280;66168;45.478;11.060;2023-04-15T03:15:16;99595.96;;;9.42;57.24
76868;BME280;66168;45.478;11.060;2023-04-15T03:17:45;99597.52;;;9.41;57.25
76868;BME280;66168;45.478;11.060;2023-04-15T03:20:14;99603.77;;;9.37;57.30
76868;BME280;66168;45.478;11.060;2023-04-15T03:22:41;99605.73;;;9.34;57.29
76868;BME280;66168;45.478;11.060;2023-04-15T03:25:08;99604.52;;;9.29;57.84
76868;BME280;66168;45.478;11.060;2023-04-15T03:27:36;99601.19;;;9.26;57.84
76868;BME280;66168;45.478;11.060;2023-04-15T03:30:03;99603.77;;;9.22;58.00
76868;BME280;66168;45.478;11.060;2023-04-15T03:32:31;99598.53;;;9.19;57.87
76868;BME280;66168;45.478;11.060;2023-04-15T03:34:58;99605.17;;;9.18;57.80
76868;BME280;66168;45.478;11.060;2023-04-15T03:37:24;99603.23;;;9.15;57.76
76868;BME280;66168;45.478;11.060;2023-04-15T03:39:51;99602.68;;;9.13;57.66
76868;BME280;66168;45.478;11.060;2023-04-15T03:42:18;99608.36;;;9.10;57.55
76868;BME280;66168;45.478;11.060;2023-04-15T03:44:44;99607.77;;;9.07;57.59
76868;BME280;66168;45.478;11.060;2023-04-15T03:47:11;99608.61;;;9.01;57.89
76868;BME280;66168;45.478;11.060;2023-04-15T03:49:38;99609.38;;;8.96;58.08
76868;BME280;66168;45.478;11.060;2023-04-15T03:52:05;99608.98;;;8.91;57.97
76868;BME280;66168;45.478;11.060;2023-04-15T03:54:31;99610.63;;;8.80;58.17
76868;BME280;66168;45.478;11.060;2023-04-15T03:56:58;99606.48;;;8.73;58.24
76868;BME280;66168;45.478;11.060;2023-04-15T03:59:25;99607.82;;;8.68;58.67
76868;BME280;66168;45.478;11.060;2023-04-15T04:01:51;99607.70;;;8.61;58.80
76868;BME280;66168;45.478;11.060;2023-04-15T04:04:18;99609.11;;;8.56;58.88
76868;BME280;66168;45.478;11.060;2023-04-15T04:06:45;99612.92;;;8.49;58.79
76868;BME280;66168;45.478;11.060;2023-04-15T04:09:11;99614.89;;;8.44;59.08
76868;BME280;66168;45.478;11.060;2023-04-15T04:11:38;99614.85;;;8.39;59.14
76868;BME280;66168;45.478;11.060;2023-04-15T04:14:05;99619.02;;;8.34;59.11
76868;BME280;66168;45.478;11.060;2023-04-15T04:16:31;99621.46;;;8.25;59.67
76868;BME280;66168;45.478;11.060;2023-04-15T04:18:58;99620.27;;;8.18;59.64
76868;BME280;66168;45.478;11.060;2023-04-15T04:21:25;99622.38;;;8.11;60.12
76868;BME280;66168;45.478;11.060;2023-04-15T04:23:52;99624.73;;;8.12;60.39
76868;BME280;66168;45.478;11.060;2023-04-15T04:26:19;99626.92;;;8.15;60.34
76868;BME280;66168;45.478;11.060;2023-04-15T04:28:46;99631.23;;;8.18;61.01
76868;BME280;66168;45.478;11.060;2023-04-15T04:31:12;99632.57;;;8.11;60.97
76868;BME280;66168;45.478;11.060;2023-04-15T04:33:39;99630.66;;;8.09;61.06
76868;BME280;66168;45.478;11.060;2023-04-15T04:36:06;99625.77;;;8.12;61.34
76868;BME280;66168;45.478;11.060;2023-04-15T04:38:33;99629.39;;;8.16;61.17
76868;BME280;66168;45.478;11.060;2023-04-15T04:40:59;99626.09;;;8.21;61.04
76868;BME280;66168;45.478;11.060;2023-04-15T04:43:26;99627.67;;;8.27;60.79
76868;BME280;66168;45.478;11.060;2023-04-15T04:45:53;99627.27;;;8.32;60.53
76868;BME280;66168;45.478;11.060;2023-04-15T04:48:19;99626.58;;;8.34;60.48
76868;BME280;66168;45.478;11.060;2023-04-15T04:50:46;99626.04;;;8.37;60.29
76868;BME280;66168;45.478;11.060;2023-04-15T04:53:13;99626.89;;;8.40;60.10
76868;BME280;66168;45.478;11.060;2023-04-15T04:55:40;99625.15;;;8.46;59.64
76868;BME280;66168;45.478;11.060;2023-04-15T04:58:07;99633.80;;;8.50;59.30
76868;BME280;66168;45.478;11.060;2023-04-15T05:00:33;99632.05;;;8.59;59.28
76868;BME280;66168;45.478;11.060;2023-04-15T05:03:00;99631.83;;;8.68;59.27
76868;BME280;66168;45.478;11.060;2023-04-15T05:05:27;99637.24;;;8.71;59.35
76868;BME280;66168;45.478;11.060;2023-04-15T05:07:54;99637.57;;;8.71;59.06
76868;BME280;66168;45.478;11.060;2023-04-15T05:10:21;99643.02;;;8.73;59.69
76868;BME280;66168;45.478;11.060;2023-04-15T05:12:47;99650.55;;;8.58;59.91
76868;BME280;66168;45.478;11.060;2023-04-15T05:15:14;99657.19;;;8.39;59.66
76868;BME280;66168;45.478;11.060;2023-04-15T05:17:40;99663.14;;;8.30;60.38
76868;BME280;66168;45.478;11.060;2023-04-15T05:20:07;99665.34;;;8.22;60.48
76868;BME280;66168;45.478;11.060;2023-04-15T05:22:35;99669.52;;;8.15;60.83
76868;BME280;66168;45.478;11.060;2023-04-15T05:25:02;99671.91;;;8.20;60.62
76868;BME280;66168;45.478;11.060;2023-04-15T05:27:29;99673.21;;;8.31;60.60
76868;BME280;66168;45.478;11.060;2023-04-15T05:29:56;99676.66;;;8.45;60.51
76868;BME280;66168;45.478;11.060;2023-04-15T05:32:23;99685.63;;;8.56;60.55
76868;BME280;66168;45.478;11.060;2023-04-15T05:34:49;99688.19;;;8.62;60.52
76868;BME280;66168;45.478;11.060;2023-04-15T05:37:16;99692.45;;;8.69;60.18
76868;BME280;66168;45.478;11.060;2023-04-15T05:39:46;99692.17;;;8.83;60.14
76868;BME280;66168;45.478;11.060;2023-04-15T05:42:13;99691.91;;;9.03;59.86
76868;BME280;66168;45.478;11.060;2023-04-15T05:44:41;99694.40;;;9.22;59.70
76868;BME280;66168;45.478;11.060;2023-04-15T05:47:07;99695.63;;;9.40;59.19
76868;BME280;66168;45.478;11.060;2023-04-15T05:49:35;99702.58;;;9.59;58.94
76868;BME280;66168;45.478;11.060;2023-04-15T05:52:02;99698.88;;;9.77;59.04
76868;BME280;66168;45.478;11.060;2023-04-15T05:54:29;99699.52;;;9.95;58.71
76868;BME280;66168;45.478;11.060;2023-04-15T05:56:56;99702.23;;;10.16;58.65
76868;BME280;66168;45.478;11.060;2023-04-15T05:59:23;99698.94;;;10.37;58.53
76868;BME280;66168;45.478;11.060;2023-04-15T06:01:50;99697.27;;;10.58;58.29
76868;BME280;66168;45.478;11.060;2023-04-15T06:04:17;99699.17;;;10.78;57.93
76868;BME280;66168;45.478;11.060;2023-04-15T06:06:44;99700.00;;;10.96;57.71
76868;BME280;66168;45.478;11.060;2023-04-15T06:09:11;99699.03;;;11.17;57.20
76868;BME280;66168;45.478;11.060;2023-04-15T06:11:38;99694.81;;;11.34;56.90
76868;BME280;66168;45.478;11.060;2023-04-15T06:14:07;99695.00;;;11.50;56.35
76868;BME280;66168;45.478;11.060;2023-04-15T06:16:33;99693.19;;;11.62;55.89
76868;BME280;66168;45.478;11.060;2023-04-15T06:19:02;99692.81;;;11.70;55.38
76868;BME280;66168;45.478;11.060;2023-04-15T06:21:29;99693.45;;;11.77;55.32
76868;BME280;66168;45.478;11.060;2023-04-15T06:23:58;99688.04;;;11.89;55.30
76868;BME280;66168;45.478;11.060;2023-04-15T06:26:27;99690.92;;;12.07;55.09
76868;BME280;66168;45.478;11.060;2023-04-15T06:28:54;99687.23;;;12.23;54.99
76868;BME280;66168;45.478;11.060;2023-04-15T06:31:21;99686.69;;;12.39;54.49
76868;BME280;66168;45.478;11.060;2023-04-15T06:33:48;99684.10;;;12.58;54.56
76868;BME280;66168;45.478;11.060;2023-04-15T06:36:15;99688.13;;;12.75;54.25
76868;BME280;66168;45.478;11.060;2023-04-15T06:38:42;99695.05;;;12.93;54.18
76868;BME280;66168;45.478;11.060;2023-04-15T06:41:08;99693.31;;;13.12;53.84
76868;BME280;66168;45.478;11.060;2023-04-15T06:43:35;99694.82;;;13.33;53.45
76868;BME280;66168;45.478;11.060;2023-04-15T06:46:02;99691.80;;;13.42;53.15
76868;BME280;66168;45.478;11.060;2023-04-15T06:48:29;99692.84;;;13.56;52.94
76868;BME280;66168;45.478;11.060;2023-04-15T06:50:56;99693.00;;;13.76;52.85
76868;BME280;66168;45.478;11.060;2023-04-15T06:53:24;99688.61;;;13.92;52.28
76868;BME280;66168;45.478;11.060;2023-04-15T06:55:53;99690.02;;;14.03;51.79
76868;BME280;66168;45.478;11.060;2023-04-15T06:58:20;99692.61;;;14.16;51.76
76868;BME280;66168;45.478;11.060;2023-04-15T07:00:47;99693.31;;;14.27;50.96
76868;BME280;66168;45.478;11.060;2023-04-15T07:03:14;99692.37;;;14.23;49.92
76868;BME280;66168;45.478;11.060;2023-04-15T07:05:41;99692.66;;;14.15;49.64
76868;BME280;66168;45.478;11.060;2023-04-15T07:08:09;99695.07;;;14.20;50.27
76868;BME280;66168;45.478;11.060;2023-04-15T07:10:35;99694.27;;;14.29;50.21
76868;BME280;66168;45.478;11.060;2023-04-15T07:13:03;99693.44;;;14.40;50.16
76868;BME280;66168;45.478;11.060;2023-04-15T07:15:30;99693.84;;;14.58;50.12
76868;BME280;66168;45.478;11.060;2023-04-15T07:17:56;99690.30;;;14.83;50.04
76868;BME280;66168;45.478;11.060;2023-04-15T07:20:23;99690.14;;;14.98;49.26
76868;BME280;66168;45.478;11.060;2023-04-15T07:22:50;99690.60;;;15.09;49.54
76868;BME280;66168;45.478;11.060;2023-04-15T07:25:17;99690.86;;;15.25;49.51
76868;BME280;66168;45.478;11.060;2023-04-15T07:27:44;99691.34;;;15.48;49.51
76868;BME280;66168;45.478;11.060;2023-04-15T07:30:11;99688.27;;;15.72;49.35
76868;BME280;66168;45.478;11.060;2023-04-15T07:32:38;99688.61;;;16.00;48.77
76868;BME280;66168;45.478;11.060;2023-04-15T07:35:06;99682.55;;;16.12;48.66
76868;BME280;66168;45.478;11.060;2023-04-15T07:37:33;99680.95;;;16.32;48.46
76868;BME280;66168;45.478;11.060;2023-04-15T07:40:00;99682.02;;;16.49;48.30
76868;BME280;66168;45.478;11.060;2023-04-15T07:42:27;99679.95;;;16.63;48.30
76868;BME280;66168;45.478;11.060;2023-04-15T07:44:55;99683.67;;;16.83;48.36
76868;BME280;66168;45.478;11.060;2023-04-15T07:47:22;99682.62;;;17.13;47.84
76868;BME280;66168;45.478;11.060;2023-04-15T07:49:49;99679.39;;;17.43;47.38
76868;BME280;66168;45.478;11.060;2023-04-15T07:52:17;99680.89;;;17.67;46.65
76868;BME280;66168;45.478;11.060;2023-04-15T07:54:44;99679.21;;;17.81;47.09
76868;BME280;66168;45.478;11.060;2023-04-15T07:57:11;99680.64;;;18.02;46.61
76868;BME280;66168;45.478;11.060;2023-04-15T07:59:37;99682.13;;;18.19;46.17
76868;BME280;66168;45.478;11.060;2023-04-15T08:02:04;99677.34;;;18.18;45.31
76868;BME280;66168;45.478;11.060;2023-04-15T08:04:30;99681.63;;;18.17;45.32
76868;BME280;66168;45.478;11.060;2023-04-15T08:06:58;99682.22;;;18.30;45.04
76868;BME280;66168;45.478;11.060;2023-04-15T08:09:25;99680.14;;;18.39;44.28
76868;BME280;66168;45.478;11.060;2023-04-15T08:11:52;99681.91;;;18.51;44.49
76868;BME280;66168;45.478;11.060;2023-04-15T08:14:19;99683.27;;;18.68;43.99
76868;BME280;66168;45.478;11.060;2023-04-15T08:16:46;99685.73;;;18.96;43.96
76868;BME280;66168;45.478;11.060;2023-04-15T08:19:13;99692.03;;;19.26;43.71
76868;BME280;66168;45.478;11.060;2023-04-15T08:21:39;99692.41;;;19.38;42.18
76868;BME280;66168;45.478;11.060;2023-04-15T08:24:06;99689.35;;;19.38;42.69
76868;BME280;66168;45.478;11.060;2023-04-15T08:26:33;99687.33;;;19.54;42.35
76868;BME280;66168;45.478;11.060;2023-04-15T08:29:00;99682.80;;;19.67;42.49
76868;BME280;66168;45.478;11.060;2023-04-15T08:31:28;99686.24;;;19.88;42.28
76868;BME280;66168;45.478;11.060;2023-04-15T08:33:56;99685.63;;;20.09;42.09
76868;BME280;66168;45.478;11.060;2023-04-15T08:36:23;99684.70;;;20.00;40.70
76868;BME280;66168;45.478;11.060;2023-04-15T08:38:49;99684.73;;;19.66;40.96
76868;BME280;66168;45.478;11.060;2023-04-15T08:41:21;99689.02;;;19.62;41.70
76868;BME280;66168;45.478;11.060;2023-04-15T08:43:56;99688.33;;;19.64;41.04
76868;BME280;66168;45.478;11.060;2023-04-15T08:46:23;99689.98;;;19.48;41.09
76868;BME280;66168;45.478;11.060;2023-04-15T08:48:51;99693.28;;;19.48;41.63
76868;BME280;66168;45.478;11.060;2023-04-15T08:51:19;99688.52;;;19.66;41.08
76868;BME280;66168;45.478;11.060;2023-04-15T08:53:48;99688.49;;;19.93;40.90
76868;BME280;66168;45.478;11.060;2023-04-15T08:56:16;99689.29;;;20.00;40.11
76868;BME280;66168;45.478;11.060;2023-04-15T08:58:45;99690.59;;;19.91;40.47
76868;BME280;66168;45.478;11.060;2023-04-15T09:01:12;99682.95;;;19.94;40.23
76868;BME280;66168;45.478;11.060;2023-04-15T09:03:39;99683.46;;;20.09;40.55
76868;BME280;66168;45.478;11.060;2023-04-15T09:06:07;99678.46;;;20.36;40.32
76868;BME280;66168;45.478;11.060;2023-04-15T09:08:34;99682.63;;;20.63;39.63
76868;BME280;66168;45.478;11.060;2023-04-15T09:11:04;99682.40;;;20.48;39.35
76868;BME280;66168;45.478;11.060;2023-04-15T09:13:31;99676.94;;;20.57;39.08
76868;BME280;66168;45.478;11.060;2023-04-15T09:16:00;99675.66;;;20.62;38.65
76868;BME280;66168;45.478;11.060;2023-04-15T09:18:31;99677.42;;;20.58;39.02
76868;BME280;66168;45.478;11.060;2023-04-15T09:21:07;99674.44;;;20.67;39.34
76868;BME280;66168;45.478;11.060;2023-04-15T09:23:34;99672.61;;;20.94;38.73
76868;BME280;66168;45.478;11.060;2023-04-15T09:26:02;99676.42;;;21.03;37.81
76868;BME280;66168;45.478;11.060;2023-04-15T09:28:29;99673.20;;;20.90;37.89
76868;BME280;66168;45.478;11.060;2023-04-15T09:31:00;99674.66;;;20.90;38.32
76868;BME280;66168;45.478;11.060;2023-04-15T09:33:29;99674.64;;;21.03;38.15
76868;BME280;66168;45.478;11.060;2023-04-15T09:38:23;99676.81;;;21.78;37.26
76868;BME280;66168;45.478;11.060;2023-04-15T09:40:50;99676.31;;;22.08;37.16
76868;BME280;66168;45.478;11.060;2023-04-15T09:43:17;99672.45;;;22.36;36.56
76868;BME280;66168;45.478;11.060;2023-04-15T09:45:52;99670.11;;;22.62;36.19
76868;BME280;66168;45.478;11.060;2023-04-15T09:48:24;99668.30;;;22.91;35.92
76868;BME280;66168;45.478;11.060;2023-04-15T09:50:52;99667.80;;;23.20;35.45
76868;BME280;66168;45.478;11.060;2023-04-15T09:53:21;99669.16;;;23.44;35.03
76868;BME280;66168;45.478;11.060;2023-04-15T09:55:50;99668.72;;;23.46;33.90
76868;BME280;66168;45.478;11.060;2023-04-15T09:58:25;99664.04;;;23.20;33.78
76868;BME280;66168;45.478;11.060;2023-04-15T10:00:54;99664.11;;;23.28;34.50
76868;BME280;66168;45.478;11.060;2023-04-15T10:03:24;99664.74;;;23.40;34.05
76868;BME280;66168;45.478;11.060;2023-04-15T10:05:55;99661.40;;;23.35;33.22
76868;BME280;66168;45.478;11.060;2023-04-15T10:08:25;99657.30;;;23.07;32.76
76868;BME280;66168;45.478;11.060;2023-04-15T10:10:53;99657.14;;;22.40;33.25
76868;BME280;66168;45.478;11.060;2023-04-15T10:13:23;99658.33;;;22.07;33.96
76868;BME280;66168;45.478;11.060;2023-04-15T10:16:00;99656.89;;;21.99;34.53
76868;BME280;66168;45.478;11.060;2023-04-15T10:18:34;99654.52;;;21.88;34.12
76868;BME280;66168;45.478;11.060;2023-04-15T10:21:01;99657.64;;;21.83;34.95
76868;BME280;66168;45.478;11.060;2023-04-15T10:23:28;99658.45;;;22.04;34.63
76868;BME280;66168;45.478;11.060;2023-04-15T10:25:54;99651.44;;;22.42;34.80
76868;BME280;66168;45.478;11.060;2023-04-15T10:28:22;99647.05;;;22.73;34.20
76868;BME280;66168;45.478;11.060;2023-04-15T10:30:48;99645.81;;;22.81;34.44
76868;BME280;66168;45.478;11.060;2023-04-15T10:33:17;99643.80;;;22.70;34.63
76868;BME280;66168;45.478;11.060;2023-04-15T10:35:47;99643.69;;;22.45;34.51
76868;BME280;66168;45.478;11.060;2023-04-15T10:38:31;99645.83;;;22.10;35.21
76868;BME280;66168;45.478;11.060;2023-04-15T10:41:25;99639.94;;;21.99;35.78
76868;BME280;66168;45.478;11.060;2023-04-15T10:44:02;99642.09;;;22.08;36.41
76868;BME280;66168;45.478;11.060;2023-04-15T10:46:59;99636.49;;;21.70;37.04
76868;BME280;66168;45.478;11.060;2023-04-15T10:49:26;99639.66;;;21.44;38.12
76868;BME280;66168;45.478;11.060;2023-04-15T10:51:57;99638.40;;;21.28;38.24
76868;BME280;66168;45.478;11.060;2023-04-15T10:57:06;99632.21;;;20.87;38.91
76868;BME280;66168;45.478;11.060;2023-04-15T10:59:59;99626.33;;;20.85;39.08
76868;BME280;66168;45.478;11.060;2023-04-15T11:02:38;99631.73;;;21.05;39.25
76868;BME280;66168;45.478;11.060;2023-04-15T11:05:07;99630.52;;;21.18;38.50
76868;BME280;66168;45.478;11.060;2023-04-15T11:07:50;99627.86;;;21.29;38.60
76868;BME280;66168;45.478;11.060;2023-04-15T11:12:50;99625.17;;;21.06;39.15
76868;BME280;66168;45.478;11.060;2023-04-15T11:15:36;99620.45;;;21.28;39.15
76868;BME280;66168;45.478;11.060;2023-04-15T11:18:23;99620.52;;;21.47;38.21
76868;BME280;66168;45.478;11.060;2023-04-15T11:20:58;99622.52;;;21.34;37.81
76868;BME280;66168;45.478;11.060;2023-04-15T11:23:29;99618.33;;;21.10;38.21
76868;BME280;66168;45.478;11.060;2023-04-15T11:25:57;99620.66;;;20.92;38.84
76868;BME280;66168;45.478;11.060;2023-04-15T11:28:26;99616.50;;;20.87;38.59
76868;BME280;66168;45.478;11.060;2023-04-15T11:30:54;99617.45;;;20.82;37.89
76868;BME280;66168;45.478;11.060;2023-04-15T11:33:22;99619.50;;;20.59;38.21
76868;BME280;66168;45.478;11.060;2023-04-15T11:35:51;99622.98;;;20.33;38.51
76868;BME280;66168;45.478;11.060;2023-04-15T11:38:22;99621.33;;;20.21;38.85
76868;BME280;66168;45.478;11.060;2023-04-15T11:40:50;99618.66;;;20.14;39.23
76868;BME280;66168;45.478;11.060;2023-04-15T11:43:20;99619.50;;;20.22;39.39
76868;BME280;66168;45.478;11.060;2023-04-15T11:48:17;99617.20;;;20.46;38.40
76868;BME280;66168;45.478;11.060;2023-04-15T11:50:44;99614.08;;;20.70;38.50
76868;BME280;66168;45.478;11.060;2023-04-15T11:53:12;99611.09;;;20.92;37.90
76868;BME280;66168;45.478;11.060;2023-04-15T11:55:45;99612.69;;;21.05;37.97
76868;BME280;66168;45.478;11.060;2023-04-15T11:58:21;99611.10;;;20.98;37.27
76868;BME280;66168;45.478;11.060;2023-04-15T12:00:49;99611.25;;;20.84;37.17
76868;BME280;66168;45.478;11.060;2023-04-15T12:03:23;99608.23;;;20.98;37.69
76868;BME280;66168;45.478;11.060;2023-04-15T12:06:12;99610.59;;;21.50;37.70
76868;BME280;66168;45.478;11.060;2023-04-15T12:08:54;99611.09;;;21.81;36.43
76868;BME280;66168;45.478;11.060;2023-04-15T12:11:44;99610.75;;;21.57;36.60
76868;BME280;66168;45.478;11.060;2023-04-15T12:14:19;99614.38;;;21.10;36.83
76868;BME280;66168;45.478;11.060;2023-04-15T12:16:50;99612.44;;;20.44;37.18
76868;BME280;66168;45.478;11.060;2023-04-15T12:19:27;99615.23;;;19.99;37.70
76868;BME280;66168;45.478;11.060;2023-04-15T12:21:59;99617.20;;;19.53;38.09
76868;BME280;66168;45.478;11.060;2023-04-15T12:24:27;99618.70;;;19.09;38.87
76868;BME280;66168;45.478;11.060;2023-04-15T12:27:01;99624.23;;;18.78;39.43
76868;BME280;66168;45.478;11.060;2023-04-15T12:29:29;99626.98;;;18.54;39.84
76868;BME280;66168;45.478;11.060;2023-04-15T12:31:58;99628.59;;;18.32;40.40
76868;BME280;66168;45.478;11.060;2023-04-15T12:34:31;99627.47;;;18.25;41.07
76868;BME280;66168;45.478;11.060;2023-04-15T12:37:00;99634.09;;;18.16;41.35
76868;BME280;66168;45.478;11.060;2023-04-15T12:39:29;99634.17;;;18.03;41.52
76868;BME280;66168;45.478;11.060;2023-04-15T12:41:57;99636.74;;;17.98;41.55
76868;BME280;66168;45.478;11.060;2023-04-15T12:44:26;99638.05;;;17.99;41.74
76868;BME280;66168;45.478;11.060;2023-04-15T12:46:53;99634.60;;;18.04;41.72
76868;BME280;66168;45.478;11.060;2023-04-15T12:49:21;99628.83;;;18.05;41.74
76868;BME280;66168;45.478;11.060;2023-04-15T12:51:49;99621.65;;;18.00;42.09
76868;BME280;66168;45.478;11.060;2023-04-15T12:54:17;99618.37;;;18.04;42.29
76868;BME280;66168;45.478;11.060;2023-04-15T12:56:45;99613.88;;;18.45;41.80
76868;BME280;66168;45.478;11.060;2023-04-15T12:59:12;99616.95;;;19.11;41.44
76868;BME280;66168;45.478;11.060;2023-04-15T13:01:39;99617.14;;;19.82;40.87
76868;BME280;66168;45.478;11.060;2023-04-15T13:04:06;99620.46;;;20.39;39.83
76868;BME280;66168;45.478;11.060;2023-04-15T13:06:34;99617.19;;;20.78;39.58
76868;BME280;66168;45.478;11.060;2023-04-15T13:09:02;99616.60;;;21.10;39.10